createdAt,value
2023-01-27T00:01:42.199Z,65298.56
2023-01-27T00:06:48.221Z,65296.88
2023-01-27T00:12:10.136Z,65249.19
2023-01-27T00:17:14.609Z,65145.50
2023-01-27T00:22:38.274Z,65292.81
2023-01-27T00:27:43.499Z,65363.72
2023-01-27T00:33:05.365Z,65213.66
2023-01-27T00:38:11.401Z,65249.72
2023-01-27T00:43:15.843Z,65264.63
2023-01-27T00:48:20.597Z,65333.69
2023-01-27T00:53:26.910Z,65396.53
2023-01-27T00:58:31.637Z,65347.97
2023-01-27T01:03:37.750Z,65402.38
2023-01-27T01:08:44.680Z,65394.91
2023-01-27T01:13:49.625Z,65318.16
2023-01-27T01:18:54.950Z,65386.19
2023-01-27T01:24:00.970Z,65343.91
2023-01-27T01:29:05.922Z,65359.16
2023-01-27T01:34:10.787Z,65398.22
2023-01-27T01:39:16.634Z,65398.97
2023-01-27T01:44:24.088Z,65358.28
2023-01-27T01:49:34.091Z,65424.66
2023-01-27T01:54:44.438Z,65413.56
2023-01-27T01:59:54.217Z,65467.47
2023-01-27T02:05:04.532Z,65421.66
2023-01-27T02:10:12.113Z,65391.63
2023-01-27T02:15:17.405Z,65292.59
2023-01-27T02:20:29.461Z,65275.16
2023-01-27T02:25:45.134Z,65288.97
2023-01-27T02:30:50.090Z,65313.34
2023-01-27T02:36:02.470Z,65259.84
2023-01-27T02:41:15.890Z,65256.97
2023-01-27T02:46:20.831Z,65318.88
2023-01-27T02:51:25.485Z,65359.69
2023-01-27T02:56:31.686Z,65355.41
2023-01-27T03:01:36.317Z,65375.63
2023-01-27T03:06:40.876Z,65348.69
2023-01-27T03:12:04.924Z,65397.16
2023-01-27T03:17:26.782Z,65375.63
2023-01-27T03:22:31.515Z,65360.94
2023-01-27T03:27:40.490Z,65315.16
2023-01-27T03:33:04.129Z,65316.13
2023-01-27T03:38:44.732Z,65420.41
2023-01-27T03:44:08.526Z,65343.03
2023-01-27T03:49:13.210Z,65285.34
2023-01-27T03:54:17.850Z,65349.03
2023-01-27T03:59:23.900Z,65354.34
2023-01-27T04:04:45.628Z,65287.28
2023-01-27T04:09:50.574Z,65268.66
2023-01-27T04:14:57.145Z,65273.56
2023-01-27T04:20:01.276Z,65315.69
2023-01-27T04:25:06.577Z,65318.34
2023-01-27T04:30:13.860Z,65299.19
2023-01-27T04:35:20.103Z,65357.75
2023-01-27T04:40:26.252Z,65291.63
2023-01-27T04:45:32.195Z,65319.41
2023-01-27T04:50:36.649Z,65315.47
2023-01-27T04:55:49.955Z,65314.41
2023-01-27T05:00:55.879Z,65324.75
2023-01-27T05:05:59.911Z,65356.47
2023-01-27T05:11:04.382Z,65259.19
2023-01-27T05:16:16.261Z,65235.88
2023-01-27T05:21:22.700Z,65278.66
2023-01-27T05:26:28.745Z,65245.34
2023-01-27T05:31:34.843Z,65281.97
2023-01-27T05:36:39.483Z,65287.28
2023-01-27T05:41:43.916Z,65279.41
2023-01-27T05:46:49.804Z,65232.16
2023-01-27T05:51:54.572Z,65269.38
2023-01-27T05:56:59.243Z,65251.31
2023-01-27T06:02:05.444Z,65256.97
2023-01-27T06:07:10.173Z,65266.00
2023-01-27T06:12:14.552Z,65233.66
2023-01-27T06:17:20.373Z,65201.09
2023-01-27T06:22:24.896Z,65196.31
2023-01-27T06:27:30.552Z,65280.03
2023-01-27T06:32:37.923Z,65262.81
2023-01-27T06:37:42.849Z,65205.25
2023-01-27T06:42:47.410Z,65217.78
2023-01-27T06:47:58.343Z,65272.06
2023-01-27T06:53:03.849Z,65247.91
2023-01-27T06:58:08.408Z,65236.41
2023-01-27T07:08:17.918Z,65207.16
2023-01-27T07:13:22.513Z,65238.34
2023-01-27T07:18:28.411Z,65209.09
2023-01-27T07:23:32.427Z,65244.94
2023-01-27T07:28:36.784Z,65231.53
2023-01-27T07:33:42.689Z,65280.59
2023-01-27T07:38:50.214Z,65222.38
2023-01-27T07:43:54.639Z,65195.78
2023-01-27T07:49:02.672Z,65283.03
2023-01-27T07:54:07.524Z,65279.31
2023-01-27T07:59:11.953Z,65286.09
2023-01-27T08:04:17.890Z,65209.09
2023-01-27T08:09:22.273Z,65377.44
2023-01-27T08:14:26.751Z,65313.03
2023-01-27T08:19:32.654Z,65314.19
2023-01-27T08:24:36.777Z,65288.97
2023-01-27T08:29:41.124Z,65191.13
2023-01-27T08:34:46.923Z,65315.47
2023-01-27T08:39:51.006Z,65313.88
2023-01-27T08:44:55.532Z,65353.81
2023-01-27T08:50:01.388Z,65357.13
2023-01-27T08:55:06.594Z,65330.06
2023-01-27T09:00:13.768Z,65269.81
2023-01-27T09:05:21.601Z,65324.53
2023-01-27T09:10:26.075Z,65252.81
2023-01-27T09:15:30.685Z,65363.50
2023-01-27T09:20:37.404Z,65333.59
2023-01-27T09:25:41.789Z,65356.59
2023-01-27T09:30:47.051Z,65313.78
2023-01-27T09:35:59.562Z,65306.00
2023-01-27T09:41:24.053Z,65351.25
2023-01-27T09:46:54.644Z,65398.00
2023-01-27T09:52:18.784Z,65310.69
2023-01-27T09:57:34.371Z,65275.03
2023-01-27T10:02:56.740Z,65325.81
2023-01-27T10:08:28.404Z,65265.78
2023-01-27T10:13:44.937Z,65325.72
2023-01-27T10:19:10.521Z,65377.00
2023-01-27T10:24:29.949Z,65438.06
2023-01-27T10:29:41.700Z,65456.81
2023-01-27T10:34:52.106Z,65335.38
2023-01-27T10:40:06.587Z,65374.56
2023-01-27T10:45:24.025Z,65391.72
2023-01-27T10:50:30.962Z,65519.81
2023-01-27T10:55:43.359Z,65463.22
2023-01-27T11:01:19.195Z,65412.41
2023-01-27T11:06:19.103Z,65389.06
2023-01-27T11:11:44.321Z,65433.91
2023-01-27T11:16:52.357Z,65393.13
2023-01-27T11:22:07.212Z,65335.81
2023-01-27T11:27:25.735Z,65468.97
2023-01-27T11:32:43.730Z,65388.09
2023-01-27T11:37:50.797Z,65397.59
2023-01-27T11:42:58.449Z,65402.81
2023-01-27T11:48:04.791Z,65443.50
2023-01-27T11:53:16.733Z,65370.94
2023-01-27T11:58:26.858Z,65408.25
2023-01-27T12:03:47.505Z,65357.75
2023-01-27T12:08:51.841Z,65379.66
2023-01-27T12:14:00.334Z,65462.13
2023-01-27T12:19:16.459Z,65427.31
2023-01-27T12:24:29.538Z,65400.34
2023-01-27T12:29:42.168Z,65390.66
2023-01-27T12:34:50.107Z,65340.16
2023-01-27T12:40:00.541Z,65291.44
2023-01-27T12:45:25.568Z,65302.81
2023-01-27T12:50:32.655Z,65310.16
2023-01-27T12:55:40.330Z,65337.94
2023-01-27T13:00:48.300Z,65396.09
2023-01-27T13:05:56.754Z,65352.13
2023-01-27T13:11:03.446Z,65373.81
2023-01-27T13:16:19.202Z,65384.16
2023-01-27T13:21:26.716Z,65327.41
2023-01-27T13:26:33.980Z,65321.97
2023-01-27T13:31:47.305Z,65282.59
2023-01-27T13:36:56.813Z,65256.00
2023-01-27T13:42:11.985Z,65233.22
2023-01-27T13:47:21.906Z,65243.22
2023-01-27T13:52:26.812Z,65232.59
2023-01-27T13:58:01.417Z,65201.94
2023-01-27T14:03:36.816Z,65212.91
2023-01-27T14:08:58.639Z,65230.47
2023-01-27T14:14:22.861Z,65180.59
2023-01-27T14:19:38.438Z,65243.34
2023-01-27T14:24:51.350Z,65200.03
2023-01-27T14:30:03.838Z,65177.94
2023-01-27T14:35:27.193Z,65215.56
2023-01-27T14:40:36.682Z,65196.53
2023-01-27T14:45:45.448Z,65214.50
2023-01-27T14:51:04.744Z,65283.22
2023-01-27T14:56:17.511Z,65255.03
2023-01-27T15:01:35.099Z,65268.31
2023-01-27T15:06:47.396Z,65296.88
2023-01-27T15:12:13.805Z,65216.19
2023-01-27T15:17:27.158Z,65246.53
2023-01-27T15:22:45.839Z,65155.38
2023-01-27T15:27:54.530Z,65206.97
2023-01-27T15:32:59.591Z,65191.75
2023-01-27T15:38:30.696Z,65150.72
2023-01-27T15:43:40.207Z,65110.63
2023-01-27T15:48:46.663Z,65161.44
2023-01-27T15:53:55.687Z,65129.47
2023-01-27T15:59:06.668Z,65100.75
2023-01-27T16:04:17.862Z,65100.13
2023-01-27T16:09:33.956Z,65101.72
2023-01-27T16:14:46.212Z,65092.16
2023-01-27T16:20:20.983Z,65102.25
2023-01-27T16:25:37.332Z,65147.50
2023-01-27T16:30:48.375Z,65190.47
2023-01-27T16:35:54.889Z,65176.22
2023-01-27T16:41:03.735Z,65151.78
2023-01-27T16:46:28.012Z,65191.13
2023-01-27T16:51:32.972Z,65183.78
2023-01-27T16:56:39.070Z,65212.81
2023-01-27T17:01:48.526Z,65175.16
2023-01-27T17:06:54.363Z,65206.84
2023-01-27T17:12:00.771Z,65145.28
2023-01-27T17:17:07.218Z,65184.72
2023-01-27T17:22:23.820Z,65203.66
2023-01-27T17:27:34.071Z,65235.16
2023-01-27T17:32:41.507Z,65192.19
2023-01-27T17:37:45.990Z,65223.13
2023-01-27T17:42:51.789Z,65204.31
2023-01-27T17:47:58.926Z,65231.94
2023-01-27T17:53:05.960Z,65199.19
2023-01-27T17:58:24.484Z,65213.75
2023-01-27T18:03:34.751Z,65149.88
2023-01-27T18:08:40.286Z,65144.22
2023-01-27T18:13:46.196Z,65169.31
2023-01-27T18:18:52.991Z,65159.84
2023-01-27T18:23:59.761Z,65260.69
2023-01-27T18:29:08.975Z,65177.72
2023-01-27T18:34:24.084Z,65206.53
2023-01-27T18:39:34.630Z,65244.81
2023-01-27T18:44:40.658Z,65248.13
2023-01-27T18:49:45.840Z,65233.13
2023-01-27T18:54:50.826Z,65193.25
2023-01-27T18:59:56.840Z,65177.94
2023-01-27T19:05:01.330Z,65180.59
2023-01-27T19:10:07.860Z,65221.84
2023-01-27T19:15:16.047Z,65210.78
2023-01-27T19:20:23.252Z,65219.81
2023-01-27T19:25:30.821Z,65218.75
2023-01-27T19:30:37.365Z,65244.19
2023-01-27T19:35:43.821Z,65189.94
2023-01-27T19:40:48.264Z,65185.38
2023-01-27T19:45:54.545Z,65131.59
2023-01-27T19:50:59.988Z,65211.97
2023-01-27T19:56:04.967Z,65183.66
2023-01-27T20:01:11.657Z,65200.25
2023-01-27T20:06:18.298Z,65116.81
2023-01-27T20:11:32.964Z,65122.44
2023-01-27T20:16:40.133Z,65138.47
2023-01-27T20:21:46.312Z,65128.28
2023-01-27T20:26:50.878Z,65133.69
2023-01-27T20:31:56.825Z,65158.16
2023-01-27T20:37:02.444Z,65145.28
2023-01-27T20:42:12.508Z,65126.78
2023-01-27T20:47:18.526Z,65107.56
2023-01-27T20:52:26.222Z,65161.75
2023-01-27T20:57:31.317Z,65118.19
2023-01-27T21:02:37.160Z,65152.75
2023-01-27T21:07:41.111Z,65116.50
2023-01-27T21:12:46.355Z,65110.44
2023-01-27T21:17:53.527Z,65172.94
2023-01-27T21:22:57.983Z,65138.91
2023-01-27T21:28:02.486Z,65104.03
2023-01-27T21:33:08.522Z,65083.84
2023-01-27T21:38:57.612Z,65073.03
2023-01-27T21:45:54.276Z,65078.88
2023-01-27T22:05:39.430Z,65144.22
2023-01-27T22:10:44.215Z,65113.84
2023-01-27T22:15:57.058Z,65134.13
2023-01-27T22:21:41.015Z,65145.81
2023-01-27T22:27:27.777Z,65123.50
2023-01-27T22:32:37.384Z,65112.75
2023-01-27T22:37:44.694Z,65124.25
2023-01-27T22:42:50.532Z,65166.56
2023-01-27T22:47:56.460Z,65117.75
2023-01-27T22:53:01.014Z,65136.69
2023-01-27T22:58:05.488Z,65109.69
2023-01-27T23:03:11.399Z,65188.34
2023-01-27T23:08:16.537Z,65123.06
2023-01-27T23:13:21.786Z,65175.69
2023-01-27T23:18:27.930Z,65213.31
2023-01-27T23:23:32.364Z,65213.56
2023-01-27T23:28:38.990Z,65131.47
2023-01-27T23:33:46.595Z,65094.47
2023-01-27T23:38:51.220Z,65179.00
2023-01-27T23:43:56.842Z,65125.84
2023-01-27T23:49:02.606Z,65139.00
2023-01-27T23:54:07.145Z,65170.91
2023-01-27T23:59:13.292Z,65184.09
